createdAt,value
2018-11-21T00:01:19.650Z,33.20
2018-11-21T00:03:49.703Z,25.20
2018-11-21T00:06:19.902Z,27.13
2018-11-21T00:08:50.101Z,27.73
2018-11-21T00:11:20.294Z,29.32
2018-11-21T00:13:50.481Z,24.43
2018-11-21T00:16:25.479Z,27.20
2018-11-21T00:19:00.681Z,26.75
2018-11-21T00:21:25.746Z,25.23
2018-11-21T00:23:55.915Z,29.07
2018-11-21T00:26:26.080Z,24.75
2018-11-21T00:28:57.518Z,23.77
2018-11-21T00:31:27.671Z,27.87
2018-11-21T00:33:58.258Z,28.30
2018-11-21T00:36:28.369Z,25.12
2018-11-21T00:38:58.502Z,27.00
2018-11-21T00:41:28.620Z,34.50
2018-11-21T00:43:58.800Z,27.17
2018-11-21T00:46:28.975Z,25.32
2018-11-21T00:48:59.115Z,23.52
2018-11-21T00:51:29.257Z,25.05
2018-11-21T00:53:59.453Z,24.92
2018-11-21T00:56:29.685Z,24.60
2018-11-21T00:58:59.800Z,24.20
2018-11-21T01:01:29.964Z,27.13
2018-11-21T01:04:00.215Z,26.75
2018-11-21T01:06:30.439Z,26.00
2018-11-21T01:09:00.595Z,27.90
2018-11-21T01:11:30.717Z,25.55
2018-11-21T01:14:00.920Z,23.92
2018-11-21T01:16:31.160Z,23.90
2018-11-21T01:19:01.396Z,23.42
2018-11-21T01:21:31.547Z,19.50
2018-11-21T01:24:01.710Z,28.30
2018-11-21T01:26:32.053Z,22.13
2018-11-21T01:29:02.683Z,24.50
2018-11-21T01:31:35.565Z,24.18
2018-11-21T01:34:03.326Z,22.30
2018-11-21T01:36:33.492Z,27.30
2018-11-21T01:39:04.915Z,22.48
2018-11-21T01:41:35.063Z,20.05
2018-11-21T01:44:05.744Z,22.42
2018-11-21T01:46:36.792Z,22.00
2018-11-21T01:49:07.172Z,26.93
2018-11-21T01:51:37.275Z,28.27
2018-11-21T01:54:07.487Z,25.52
2018-11-21T01:56:37.583Z,26.33
2018-11-21T01:59:08.709Z,29.85
2018-11-21T02:01:38.832Z,22.62
2018-11-21T02:04:09.075Z,27.25
2018-11-21T02:06:39.285Z,20.15
2018-11-21T02:09:11.663Z,28.77
2018-11-21T02:11:41.899Z,26.25
2018-11-21T02:14:12.091Z,23.40
2018-11-21T02:16:42.573Z,31.65
2018-11-21T02:19:12.749Z,26.00
2018-11-21T02:21:42.983Z,23.05
2018-11-21T02:24:13.186Z,25.12
2018-11-21T02:26:43.404Z,24.43
2018-11-21T02:29:13.904Z,25.30
2018-11-21T02:31:44.099Z,27.00
2018-11-21T02:34:14.691Z,23.80
2018-11-21T02:36:44.899Z,23.75
2018-11-21T02:39:15.051Z,24.00
2018-11-21T02:41:45.719Z,19.82
2018-11-21T02:44:17.587Z,28.20
2018-11-21T02:46:47.738Z,24.05
2018-11-21T02:49:18.734Z,26.10
2018-11-21T02:51:48.818Z,30.72
2018-11-21T02:54:19.192Z,24.10
2018-11-21T02:57:28.651Z,25.88
2018-11-21T03:00:10.924Z,24.23
2018-11-21T03:02:41.080Z,23.18
2018-11-21T03:05:11.236Z,21.40
2018-11-21T03:07:54.766Z,25.65
2018-11-21T03:10:25.791Z,25.55
2018-11-21T03:12:56.489Z,25.00
2018-11-21T03:15:30.191Z,26.97
2018-11-21T03:18:00.219Z,24.95
2018-11-21T03:20:30.405Z,22.30
2018-11-21T03:23:01.008Z,27.95
2018-11-21T03:25:31.267Z,22.73
2018-11-21T03:28:01.747Z,28.60
2018-11-21T03:33:47.004Z,24.75
2018-11-21T03:36:29.545Z,21.65
2018-11-21T03:39:11.885Z,33.33
2018-11-21T03:42:01.416Z,24.63
2018-11-21T03:44:50.652Z,26.40
2018-11-21T03:47:40.544Z,25.70
2018-11-21T03:50:23.526Z,24.85
2018-11-21T03:53:13.132Z,22.32
2018-11-21T03:55:55.406Z,30.48
2018-11-21T03:58:44.977Z,26.17
2018-11-21T04:01:27.195Z,26.68
2018-11-21T04:04:17.634Z,25.80
2018-11-21T04:06:59.978Z,28.50
2018-11-21T04:09:42.373Z,24.27
2018-11-21T04:12:31.927Z,26.80
2018-11-21T04:15:19.923Z,25.50
2018-11-21T04:18:09.482Z,28.40
2018-11-21T04:20:51.581Z,32.83
2018-11-21T04:23:41.538Z,22.58
2018-11-21T04:26:24.387Z,20.95
2018-11-21T04:29:13.989Z,28.70
2018-11-21T04:31:56.449Z,26.95
2018-11-21T04:34:46.038Z,25.95
2018-11-21T04:37:28.230Z,26.65
2018-11-21T04:40:17.839Z,21.77
2018-11-21T04:42:58.908Z,27.40
2018-11-21T04:45:48.498Z,29.07
2018-11-21T04:48:31.346Z,24.87
2018-11-21T04:51:21.060Z,21.57
2018-11-21T04:54:03.917Z,23.85
2018-11-21T04:56:53.539Z,29.82
2018-11-21T04:59:37.262Z,22.40
2018-11-21T05:02:26.799Z,23.55
2018-11-21T05:05:09.806Z,24.55
2018-11-21T05:07:40.039Z,28.07
2018-11-21T05:10:22.555Z,26.20
2018-11-21T05:13:12.124Z,24.02
2018-11-21T05:15:54.838Z,21.40
2018-11-21T05:18:44.405Z,25.40
2018-11-21T05:21:26.736Z,27.58
2018-11-21T05:24:16.258Z,25.12
2018-11-21T05:26:58.582Z,26.50
2018-11-21T05:29:48.107Z,26.30
2018-11-21T05:32:18.226Z,21.15
2018-11-21T05:35:01.758Z,26.52
2018-11-21T05:37:51.356Z,25.72
2018-11-21T05:40:34.108Z,32.13
2018-11-21T05:43:16.824Z,29.12
2018-11-21T05:46:06.477Z,28.17
2018-11-21T05:48:49.358Z,24.63
2018-11-21T05:51:31.717Z,29.40
2018-11-21T05:54:01.990Z,29.87
2018-11-21T05:56:44.406Z,24.00
2018-11-21T05:59:33.976Z,26.52
2018-11-21T06:02:17.231Z,27.30
2018-11-21T06:05:07.180Z,34.67
2018-11-21T06:07:55.197Z,24.72
2018-11-21T06:10:44.756Z,22.87
2018-11-21T06:13:26.958Z,25.62
2018-11-21T06:16:16.558Z,25.70
2018-11-21T06:18:59.177Z,27.05
2018-11-21T06:21:48.879Z,30.65
2018-11-21T06:24:30.946Z,31.35
2018-11-21T06:27:20.497Z,31.27
2018-11-21T06:30:02.824Z,30.17
2018-11-21T06:32:52.379Z,28.42
2018-11-21T06:35:33.022Z,29.55
2018-11-21T06:38:22.608Z,34.30
2018-11-21T06:41:05.417Z,28.77
2018-11-21T06:43:54.990Z,29.30
2018-11-21T06:46:37.850Z,23.70
2018-11-21T06:49:27.411Z,25.82
2018-11-21T06:52:10.171Z,24.98
2018-11-21T06:54:59.773Z,29.25
2018-11-21T06:57:43.071Z,25.88
2018-11-21T07:00:32.569Z,32.35
2018-11-21T07:03:15.042Z,26.75
2018-11-21T07:06:04.622Z,24.05
2018-11-21T07:08:47.197Z,27.75
2018-11-21T07:11:36.743Z,32.40
2018-11-21T07:14:19.104Z,29.42
2018-11-21T07:17:08.933Z,30.90
2018-11-21T07:19:51.505Z,31.07
2018-11-21T07:22:33.930Z,29.80
2018-11-21T07:25:06.001Z,28.87
2018-11-21T07:27:55.581Z,32.70
2018-11-21T07:30:25.690Z,31.75
2018-11-21T07:33:15.265Z,26.77
2018-11-21T07:35:57.623Z,35.92
2018-11-21T07:38:47.160Z,31.52
2018-11-21T07:41:29.325Z,56.92
2018-11-21T07:44:18.913Z,88.75
2018-11-21T07:47:01.564Z,74.53
2018-11-21T07:49:51.128Z,58.98
2018-11-21T07:52:33.418Z,31.17
2018-11-21T07:55:22.998Z,33.13
2018-11-21T07:58:13.307Z,34.98
2018-11-21T08:01:27.036Z,36.33
2018-11-21T08:04:15.284Z,39.78
2018-11-21T08:07:13.338Z,37.40
2018-11-21T08:10:14.430Z,31.48
2018-11-21T08:13:22.957Z,30.97
2018-11-21T08:16:24.080Z,39.80
2018-11-21T08:19:32.883Z,32.20
2018-11-21T08:22:33.933Z,31.60
2018-11-21T08:25:42.501Z,28.77
2018-11-21T08:28:33.389Z,30.43
2018-11-21T08:31:23.047Z,34.65
2018-11-21T08:34:05.811Z,36.23
2018-11-21T08:36:48.432Z,33.08
2018-11-21T08:39:37.985Z,30.50
2018-11-21T08:42:20.774Z,29.50
2018-11-21T08:45:11.066Z,33.85
2018-11-21T08:47:53.351Z,34.70
2018-11-21T08:50:42.890Z,41.98
2018-11-21T08:53:25.242Z,29.25
2018-11-21T08:56:15.112Z,36.48
2018-11-21T08:58:55.829Z,31.75
2018-11-21T09:01:45.335Z,37.83
2018-11-21T09:04:27.490Z,29.27
2018-11-21T09:07:17.048Z,42.33
2018-11-21T09:09:59.210Z,32.17
2018-11-21T09:12:48.675Z,35.38
2018-11-21T09:15:31.181Z,32.85
2018-11-21T09:18:20.738Z,35.10
2018-11-21T09:21:03.569Z,35.10
2018-11-21T09:23:53.200Z,37.70
2018-11-21T09:26:35.413Z,30.95
2018-11-21T09:29:25.095Z,32.15
2018-11-21T09:32:07.016Z,36.53
2018-11-21T09:34:56.549Z,33.25
2018-11-21T09:37:38.646Z,33.10
2018-11-21T09:40:28.235Z,34.35
2018-11-21T09:43:10.436Z,35.98
2018-11-21T09:45:59.990Z,30.48
2018-11-21T09:48:42.909Z,36.68
2018-11-21T09:51:32.625Z,33.55
2018-11-21T09:54:15.329Z,28.12
2018-11-21T09:57:05.060Z,33.38
2018-11-21T09:59:47.656Z,37.40
2018-11-21T10:03:17.743Z,36.08
2018-11-21T10:06:02.021Z,36.28
2018-11-21T10:09:10.537Z,32.98
2018-11-21T10:11:52.537Z,31.95
2018-11-21T10:14:42.125Z,37.08
2018-11-21T10:17:24.802Z,33.75
2018-11-21T10:20:14.350Z,34.50
2018-11-21T10:22:56.865Z,32.95
2018-11-21T10:25:46.346Z,40.52
2018-11-21T10:28:28.557Z,35.35
2018-11-21T10:31:18.384Z,32.08
2018-11-21T10:34:01.966Z,34.78
2018-11-21T10:36:51.580Z,37.50
2018-11-21T10:39:33.704Z,33.20
2018-11-21T10:42:23.426Z,35.68
2018-11-21T10:45:07.492Z,36.65
2018-11-21T10:47:56.993Z,41.63
2018-11-21T10:50:40.226Z,36.93
2018-11-21T10:53:29.783Z,34.38
2018-11-21T10:56:12.352Z,33.48
2018-11-21T10:59:01.926Z,34.73
2018-11-21T11:02:03.201Z,42.60
2018-11-21T11:05:11.719Z,39.30
2018-11-21T11:08:13.290Z,35.03
2018-11-21T11:11:22.158Z,35.98
2018-11-21T11:14:22.280Z,34.38
2018-11-21T11:17:30.838Z,37.48
2018-11-21T11:20:38.417Z,34.98
2018-11-21T11:23:39.824Z,32.63
2018-11-21T11:26:48.363Z,31.27
2018-11-21T11:29:49.751Z,30.17
2018-11-21T11:32:58.278Z,31.52
2018-11-21T11:36:02.510Z,31.27
2018-11-21T11:39:11.067Z,31.35
2018-11-21T11:42:06.565Z,32.80
2018-11-21T11:45:15.200Z,32.45
2018-11-21T11:48:18.236Z,30.37
2018-11-21T11:51:26.782Z,36.28
2018-11-21T11:54:28.571Z,33.08
2018-11-21T11:57:37.103Z,35.23
2018-11-21T12:00:44.806Z,33.05
2018-11-21T12:03:45.883Z,32.45
2018-11-21T12:06:54.754Z,39.13
2018-11-21T12:09:58.469Z,33.48
2018-11-21T12:13:00.208Z,33.15
2018-11-21T12:16:08.671Z,42.83
2018-11-21T12:19:10.083Z,38.38
2018-11-21T12:22:18.656Z,37.88
2018-11-21T12:25:20.044Z,35.95
2018-11-21T12:28:28.470Z,37.78
2018-11-21T12:31:29.916Z,34.27
2018-11-21T12:34:38.457Z,38.00
2018-11-21T12:37:34.716Z,42.30
2018-11-21T12:40:41.336Z,45.48
2018-11-21T12:43:48.824Z,46.70
2018-11-21T12:46:57.395Z,43.68
2018-11-21T12:49:59.210Z,41.63
2018-11-21T12:53:07.721Z,40.12
2018-11-21T12:56:10.677Z,37.58
2018-11-21T12:59:19.199Z,45.60
2018-11-21T13:02:21.114Z,44.30
2018-11-21T13:05:29.703Z,44.70
2018-11-21T13:08:30.978Z,47.83
2018-11-21T13:11:39.415Z,43.55
2018-11-21T13:14:41.236Z,43.92
2018-11-21T13:17:35.347Z,43.15
2018-11-21T13:20:43.847Z,49.98
2018-11-21T13:23:45.506Z,45.35
2018-11-21T13:26:54.053Z,39.33
2018-11-21T13:29:55.906Z,45.38
2018-11-21T13:33:04.476Z,46.25
2018-11-21T13:36:11.693Z,44.30
2018-11-21T13:39:20.302Z,40.08
2018-11-21T13:42:06.732Z,45.58
2018-11-21T13:45:15.305Z,46.25
2018-11-21T13:48:16.453Z,45.65
2018-11-21T13:51:25.153Z,54.23
2018-11-21T13:54:32.469Z,49.80
2018-11-21T13:57:22.066Z,45.08
2018-11-21T14:00:04.696Z,41.00
2018-11-21T14:02:54.607Z,46.45
2018-11-21T14:05:36.830Z,44.83
2018-11-21T14:08:26.417Z,45.45
2018-11-21T14:11:08.894Z,42.00
2018-11-21T14:14:01.375Z,41.25
2018-11-21T14:16:28.670Z,44.77
2018-11-21T14:18:58.845Z,40.03
2018-11-21T14:21:28.997Z,44.30
2018-11-21T14:24:18.614Z,34.58
2018-11-21T14:27:00.781Z,43.58
2018-11-21T14:29:50.671Z,46.10
2018-11-21T14:32:33.576Z,39.83
2018-11-21T14:35:23.135Z,43.30
2018-11-21T14:38:06.463Z,38.28
2018-11-21T14:40:55.989Z,41.88
2018-11-21T14:43:39.124Z,46.02
2018-11-21T14:46:28.658Z,43.63
2018-11-21T14:49:11.157Z,42.90
2018-11-21T14:52:00.715Z,40.63
2018-11-21T14:54:43.333Z,39.33
2018-11-21T14:57:32.902Z,42.08
2018-11-21T15:00:17.185Z,42.03
2018-11-21T15:03:06.981Z,49.25
2018-11-21T15:05:49.876Z,41.35
2018-11-21T15:08:39.378Z,37.80
2018-11-21T15:11:21.900Z,46.80
2018-11-21T15:14:11.474Z,45.78
2018-11-21T15:16:53.708Z,46.30
2018-11-21T15:19:43.549Z,38.33
2018-11-21T15:22:27.008Z,38.95
2018-11-21T15:25:17.965Z,45.75
2018-11-21T15:28:00.343Z,41.88
2018-11-21T15:30:49.903Z,41.90
2018-11-21T15:33:32.425Z,42.53
2018-11-21T15:36:22.088Z,42.10
2018-11-21T15:39:05.929Z,40.17
2018-11-21T15:41:55.607Z,41.92
2018-11-21T15:44:38.022Z,42.17
2018-11-21T15:47:27.695Z,44.70
2018-11-21T15:50:14.164Z,42.78
2018-11-21T15:53:03.734Z,37.00
2018-11-21T15:55:46.152Z,36.40
2018-11-21T15:58:35.743Z,37.75
2018-11-21T16:01:18.367Z,36.03
2018-11-21T16:04:02.317Z,40.33
2018-11-21T16:06:52.170Z,35.88
2018-11-21T16:09:34.709Z,41.37
2018-11-21T16:12:04.981Z,39.03
2018-11-21T16:14:52.583Z,38.28
2018-11-21T16:17:42.182Z,39.23
2018-11-21T16:20:24.726Z,37.67
2018-11-21T16:23:07.307Z,35.38
2018-11-21T16:25:57.219Z,41.28
2018-11-21T16:28:40.084Z,37.80
2018-11-21T16:31:23.708Z,37.55
2018-11-21T16:34:13.275Z,42.53
2018-11-21T16:36:55.971Z,42.05
2018-11-21T16:39:45.852Z,38.17
2018-11-21T16:42:28.319Z,37.75
2018-11-21T16:45:19.801Z,40.17
2018-11-21T16:48:02.205Z,37.23
2018-11-21T16:50:52.043Z,38.33
2018-11-21T16:53:35.221Z,36.38
2018-11-21T16:56:23.878Z,47.98
2018-11-21T16:59:06.878Z,46.48
2018-11-21T17:01:56.430Z,38.75
2018-11-21T17:04:39.189Z,36.85
2018-11-21T17:07:28.701Z,40.30
2018-11-21T17:10:11.857Z,39.58
2018-11-21T17:13:01.432Z,36.38
2018-11-21T17:15:44.382Z,41.80
2018-11-21T17:18:33.957Z,39.95
2018-11-21T17:21:16.984Z,36.28
2018-11-21T17:24:06.789Z,38.60
2018-11-21T17:26:49.302Z,37.35
2018-11-21T17:29:49.311Z,39.18
2018-11-21T17:32:21.557Z,42.35
2018-11-21T17:35:12.454Z,37.73
2018-11-21T17:37:56.166Z,41.48
2018-11-21T17:40:39.943Z,41.02
2018-11-21T17:43:29.474Z,42.60
2018-11-21T17:46:10.310Z,43.42
2018-11-21T17:48:59.820Z,36.25
2018-11-21T17:51:42.269Z,41.85
2018-11-21T17:54:34.438Z,41.77
2018-11-21T17:57:16.772Z,42.10
2018-11-21T18:00:13.210Z,42.00
2018-11-21T18:02:56.626Z,41.05
2018-11-21T18:05:46.151Z,45.48
2018-11-21T18:08:29.400Z,37.42
2018-11-21T18:11:19.099Z,34.85
2018-11-21T18:14:01.447Z,42.38
2018-11-21T18:16:50.990Z,36.53
2018-11-21T18:19:33.169Z,38.38
2018-11-21T18:22:22.744Z,44.13
2018-11-21T18:25:06.910Z,39.83
2018-11-21T18:27:56.709Z,37.67
2018-11-21T18:30:39.728Z,39.45
2018-11-21T18:33:29.282Z,42.43
2018-11-21T18:36:11.583Z,46.00
2018-11-21T18:39:01.103Z,46.15
2018-11-21T18:41:43.573Z,44.83
2018-11-21T18:44:33.169Z,43.95
2018-11-21T18:47:15.283Z,47.30
2018-11-21T18:50:10.975Z,46.90
2018-11-21T18:52:48.831Z,51.45
2018-11-21T18:55:40.664Z,45.33
2018-11-21T18:58:42.450Z,40.52
2018-11-21T19:01:31.991Z,50.00
2018-11-21T19:04:14.530Z,44.38
2018-11-21T19:07:04.411Z,42.33
2018-11-21T19:09:47.312Z,39.92
2018-11-21T19:12:36.934Z,42.33
2018-11-21T19:15:20.926Z,41.18
2018-11-21T19:18:10.368Z,41.65
2018-11-21T19:20:52.953Z,40.98
2018-11-21T19:23:39.986Z,46.60
2018-11-21T19:26:12.710Z,44.18
2018-11-21T19:29:02.409Z,41.75
2018-11-21T19:31:45.956Z,41.63
2018-11-21T19:34:35.585Z,40.20
2018-11-21T19:37:18.094Z,37.65
2018-11-21T19:40:27.003Z,42.00
2018-11-21T19:43:09.574Z,42.67
2018-11-21T19:45:59.153Z,44.42
2018-11-21T19:48:41.427Z,46.95
2018-11-21T19:51:31.041Z,40.75
2018-11-21T19:54:13.410Z,40.60
2018-11-21T19:57:03.566Z,38.60
2018-11-21T19:59:46.975Z,46.55
2018-11-21T20:02:36.599Z,40.08
2018-11-21T20:05:19.253Z,42.15
2018-11-21T20:08:08.914Z,45.98
2018-11-21T20:10:39.479Z,47.08
2018-11-21T20:13:09.647Z,41.25
2018-11-21T20:15:52.810Z,48.10
2018-11-21T20:18:42.415Z,36.95
2018-11-21T20:21:24.500Z,45.30
2018-11-21T20:23:54.817Z,46.53
2018-11-21T20:26:38.327Z,40.00
2018-11-21T20:29:08.480Z,39.60
2018-11-21T20:31:51.162Z,38.17
2018-11-21T20:34:40.674Z,37.00
2018-11-21T20:37:22.946Z,35.78
2018-11-21T20:40:17.428Z,40.52
2018-11-21T20:43:00.456Z,36.17
2018-11-21T20:45:50.292Z,37.78
2018-11-21T20:48:32.462Z,42.23
2018-11-21T20:51:22.719Z,41.73
2018-11-21T20:54:07.196Z,34.92
2018-11-21T20:56:59.928Z,36.73
2018-11-21T20:59:43.210Z,40.03
2018-11-21T21:02:26.024Z,43.60
2018-11-21T21:05:16.723Z,40.08
2018-11-21T21:08:00.513Z,39.65
2018-11-21T21:10:50.134Z,36.70
2018-11-21T21:13:32.430Z,39.88
2018-11-21T21:16:14.559Z,37.15
2018-11-21T21:19:04.071Z,40.95
2018-11-21T21:21:46.279Z,40.92
2018-11-21T21:24:35.799Z,42.83
2018-11-21T21:27:18.713Z,40.58
2018-11-21T21:30:13.425Z,43.68
2018-11-21T21:32:44.225Z,38.73
2018-11-21T21:35:34.271Z,40.08
2018-11-21T21:38:16.758Z,35.45
2018-11-21T21:41:06.327Z,35.17
2018-11-21T21:43:49.411Z,38.95
2018-11-21T21:46:19.660Z,40.30
2018-11-21T21:49:02.133Z,42.83
2018-11-21T21:51:51.671Z,42.70
2018-11-21T21:54:34.433Z,37.45
2018-11-21T21:57:24.088Z,40.50
2018-11-21T22:00:32.561Z,35.08
2018-11-21T22:03:22.059Z,40.73
2018-11-21T22:06:04.416Z,43.30
2018-11-21T22:08:53.990Z,41.53
2018-11-21T22:11:36.092Z,41.42
2018-11-21T22:14:25.666Z,40.58
2018-11-21T22:17:07.761Z,48.28
2018-11-21T22:19:57.334Z,43.13
2018-11-21T22:22:39.548Z,36.73
2018-11-21T22:25:29.135Z,33.53
2018-11-21T22:28:11.354Z,37.05
2018-11-21T22:31:00.976Z,49.13
2018-11-21T22:33:43.422Z,39.30
2018-11-21T22:36:25.886Z,41.20
2018-11-21T22:39:15.418Z,39.67
2018-11-21T22:41:57.744Z,35.05
2018-11-21T22:44:47.292Z,36.25
2018-11-21T22:47:29.854Z,31.82
2018-11-21T22:50:20.792Z,32.58
2018-11-21T22:53:03.104Z,33.88
2018-11-21T22:55:52.673Z,29.92
2018-11-21T22:58:35.288Z,30.32
2018-11-21T23:01:43.810Z,29.75
2018-11-21T23:04:26.112Z,34.63
2018-11-21T23:07:15.614Z,32.20
2018-11-21T23:09:58.083Z,27.17
2018-11-21T23:12:47.649Z,32.78
2018-11-21T23:15:30.022Z,31.27
2018-11-21T23:18:19.579Z,34.05
2018-11-21T23:21:02.063Z,36.42
2018-11-21T23:23:51.599Z,28.67
2018-11-21T23:26:34.024Z,38.78
2018-11-21T23:29:23.557Z,32.13
2018-11-21T23:32:06.891Z,33.05
2018-11-21T23:34:56.429Z,32.17
2018-11-21T23:37:39.132Z,31.30
2018-11-21T23:40:28.691Z,37.88
2018-11-21T23:43:11.057Z,32.25
2018-11-21T23:46:00.600Z,31.40
2018-11-21T23:48:42.982Z,28.38
2018-11-21T23:51:32.689Z,31.17
2018-11-21T23:54:15.276Z,34.00
2018-11-21T23:57:16.008Z,31.23
2018-11-21T23:59:47.148Z,32.30
